createdAt,value
2022-12-25T00:00:35.472Z,36.75
2022-12-25T00:05:41.306Z,36.00
2022-12-25T00:10:47.089Z,45.00
2022-12-25T00:15:51.785Z,45.25
2022-12-25T00:21:07.879Z,46.75
2022-12-25T00:26:17.028Z,145.75
2022-12-25T00:31:24.195Z,104.33
2022-12-25T00:36:28.838Z,80.50
2022-12-25T00:41:51.668Z,41.25
2022-12-25T00:46:56.493Z,45.67
2022-12-25T00:52:02.271Z,42.67
2022-12-25T00:57:07.008Z,50.00
2022-12-25T01:02:27.894Z,46.00
2022-12-25T01:07:32.969Z,47.75
2022-12-25T01:12:44.016Z,72.00
2022-12-25T01:17:49.521Z,109.75
2022-12-25T01:22:54.728Z,50.00
2022-12-25T01:27:59.816Z,50.00
2022-12-25T01:33:06.232Z,93.50
2022-12-25T01:38:10.829Z,54.00
2022-12-25T01:43:36.328Z,50.00
2022-12-25T01:48:41.609Z,72.00
2022-12-25T01:53:47.721Z,50.00
2022-12-25T01:58:52.565Z,38.75
2022-12-25T02:04:07.083Z,40.50
2022-12-25T02:14:16.377Z,42.33
2022-12-25T02:19:44.607Z,42.00
2022-12-25T02:25:04.168Z,41.00
2022-12-25T02:30:11.612Z,34.75
2022-12-25T02:35:16.535Z,35.33
2022-12-25T02:40:24.912Z,35.50
2022-12-25T02:45:51.107Z,40.33
2022-12-25T02:51:15.230Z,40.67
2022-12-25T02:56:39.651Z,29.33
2022-12-25T03:02:03.925Z,29.00
2022-12-25T03:07:20.447Z,26.67
2022-12-25T03:12:39.278Z,24.00
2022-12-25T03:17:44.544Z,23.00
2022-12-25T03:23:08.065Z,31.33
2022-12-25T03:28:12.714Z,21.75
2022-12-25T03:34:12.275Z,26.50
2022-12-25T03:39:44.559Z,14.00
2022-12-25T03:45:44.013Z,17.33
2022-12-25T03:51:14.728Z,29.75
2022-12-25T03:56:38.500Z,30.67
2022-12-25T04:02:02.674Z,27.00
2022-12-25T04:07:26.990Z,31.33
2022-12-25T04:12:49.571Z,22.33
2022-12-25T04:18:12.743Z,23.00
2022-12-25T04:23:35.559Z,22.00
2022-12-25T04:28:58.245Z,50.00
2022-12-25T04:34:21.865Z,30.00
2022-12-25T04:39:26.515Z,17.00
2022-12-25T04:44:31.307Z,12.00
2022-12-25T04:49:37.223Z,18.00
2022-12-25T04:54:41.960Z,21.00
2022-12-25T04:59:46.731Z,25.00
2022-12-25T05:04:51.749Z,15.25
2022-12-25T05:09:57.681Z,14.00
2022-12-25T05:15:02.472Z,24.33
2022-12-25T05:20:08.446Z,22.00
2022-12-25T05:25:13.300Z,12.00
2022-12-25T05:30:18.335Z,11.75
2022-12-25T05:35:23.315Z,20.75
2022-12-25T05:40:28.162Z,14.25
2022-12-25T05:45:33.381Z,18.00
2022-12-25T05:50:40.347Z,15.50
2022-12-25T05:55:46.044Z,22.00
2022-12-25T06:00:53.113Z,20.00
2022-12-25T06:05:59.882Z,24.00
2022-12-25T06:11:09.500Z,26.00
2022-12-25T06:16:14.668Z,15.00
2022-12-25T06:21:21.043Z,12.50
2022-12-25T06:26:26.362Z,10.50
2022-12-25T06:31:31.372Z,14.00
2022-12-25T06:36:37.626Z,17.67
2022-12-25T06:41:42.399Z,15.67
2022-12-25T06:51:51.589Z,14.33
2022-12-25T06:56:56.471Z,17.67
2022-12-25T07:07:09.256Z,19.00
2022-12-25T07:12:22.897Z,22.33
2022-12-25T07:17:30.727Z,17.67
2022-12-25T07:22:35.632Z,10.00
2022-12-25T07:32:49.968Z,22.00
2022-12-25T07:37:57.227Z,27.50
2022-12-25T07:43:03.164Z,27.33
2022-12-25T07:48:15.290Z,13.00
2022-12-25T07:53:22.063Z,10.00
2022-12-25T07:58:28.134Z,12.67
2022-12-25T08:03:34.226Z,15.00
2022-12-25T08:08:41.431Z,34.67
2022-12-25T08:13:46.516Z,27.00
2022-12-25T08:18:52.545Z,28.00
2022-12-25T08:23:59.535Z,27.00
2022-12-25T08:29:04.408Z,15.67
2022-12-25T08:34:09.349Z,28.00
2022-12-25T08:39:14.587Z,42.00
2022-12-25T08:44:20.896Z,25.33
2022-12-25T08:49:30.279Z,26.00
2022-12-25T08:54:37.802Z,42.67
2022-12-25T08:59:42.680Z,49.33
2022-12-25T09:04:48.298Z,50.00
2022-12-25T09:09:53.633Z,67.00
2022-12-25T09:14:58.591Z,54.33
2022-12-25T09:25:08.186Z,307.00
2022-12-25T09:30:13.556Z,264.75
2022-12-25T09:35:20.413Z,211.25
2022-12-25T09:40:30.518Z,186.25
2022-12-25T09:45:41.074Z,237.25
2022-12-25T09:51:01.911Z,130.33
2022-12-25T09:56:20.201Z,104.75
2022-12-25T10:01:52.456Z,126.67
2022-12-25T10:07:39.612Z,50.00
2022-12-25T10:13:15.059Z,102.75
2022-12-25T10:23:55.106Z,75.67
2022-12-25T10:29:17.428Z,48.67
2022-12-25T10:34:24.201Z,59.00
2022-12-25T10:39:30.689Z,50.00
2022-12-25T10:44:37.366Z,50.00
2022-12-25T10:49:43.931Z,49.00
2022-12-25T10:54:49.376Z,35.25
2022-12-25T10:59:59.512Z,35.67
2022-12-25T11:05:11.370Z,41.50
2022-12-25T11:10:38.850Z,19.33
2022-12-25T11:15:49.860Z,15.00
2022-12-25T11:21:00.358Z,31.50
2022-12-25T11:26:08.385Z,40.00
2022-12-25T11:31:21.525Z,29.25
2022-12-25T11:36:51.846Z,22.33
2022-12-25T11:42:01.030Z,22.00
2022-12-25T11:47:17.665Z,17.00
2022-12-25T11:52:25.839Z,25.75
2022-12-25T12:02:49.910Z,26.50
2022-12-25T12:08:00.686Z,26.33
2022-12-25T12:13:42.600Z,22.00
2022-12-25T12:18:50.788Z,34.67
2022-12-25T12:24:02.535Z,73.00
2022-12-25T12:29:23.168Z,47.50
2022-12-25T12:34:49.634Z,109.67
2022-12-25T12:39:57.526Z,86.00
2022-12-25T12:45:28.400Z,275.25
2022-12-25T12:50:42.602Z,163.67
2022-12-25T12:55:48.126Z,156.00
2022-12-25T13:01:02.839Z,82.25
2022-12-25T13:06:19.719Z,50.00
2022-12-25T13:11:31.608Z,49.33
2022-12-25T13:16:44.703Z,91.67
2022-12-25T13:21:59.871Z,271.75
2022-12-25T13:27:24.961Z,143.00
2022-12-25T13:32:36.889Z,124.25
2022-12-25T13:37:42.618Z,112.00
2022-12-25T13:42:50.756Z,111.00
2022-12-25T13:47:59.062Z,112.75
2022-12-25T13:53:15.831Z,107.67
2022-12-25T13:58:36.984Z,190.00
2022-12-25T14:03:48.105Z,81.00
2022-12-25T14:08:54.827Z,101.00
2022-12-25T14:14:10.061Z,93.33
2022-12-25T14:19:34.822Z,92.00
2022-12-25T14:24:42.542Z,50.00
2022-12-25T14:34:59.862Z,45.33
2022-12-25T14:40:24.143Z,36.33
2022-12-25T14:45:40.414Z,33.00
2022-12-25T14:51:02.909Z,20.00
2022-12-25T14:56:12.631Z,25.00
2022-12-25T15:01:38.811Z,41.75
2022-12-25T15:06:58.565Z,47.67
2022-12-25T15:12:05.309Z,71.75
2022-12-25T15:17:33.810Z,49.25
2022-12-25T15:23:10.127Z,50.00
2022-12-25T15:28:12.877Z,42.25
2022-12-25T15:33:20.901Z,37.00
2022-12-25T15:38:26.337Z,42.33
2022-12-25T15:43:46.178Z,36.00
2022-12-25T15:48:51.625Z,45.00
2022-12-25T15:53:57.325Z,36.75
2022-12-25T15:59:02.779Z,35.00
2022-12-25T16:04:08.044Z,36.00
2022-12-25T16:09:18.322Z,30.33
2022-12-25T16:19:30.225Z,37.75
2022-12-25T16:24:35.680Z,37.33
2022-12-25T16:29:41.638Z,34.25
2022-12-25T16:34:47.171Z,25.50
2022-12-25T16:39:52.449Z,36.25
2022-12-25T16:44:59.009Z,35.67
2022-12-25T16:55:11.635Z,28.00
2022-12-25T17:00:17.410Z,27.50
2022-12-25T17:05:22.605Z,32.00
2022-12-25T17:10:27.997Z,31.25
2022-12-25T17:15:33.876Z,37.25
2022-12-25T17:20:39.402Z,30.75
2022-12-25T17:25:45.547Z,29.33
2022-12-25T17:30:50.731Z,27.00
2022-12-25T17:36:01.847Z,25.00
2022-12-25T17:41:10.677Z,32.00
2022-12-25T17:46:17.070Z,30.67
2022-12-25T17:51:25.392Z,24.25
2022-12-25T17:56:31.032Z,27.00
2022-12-25T18:01:38.916Z,22.75
2022-12-25T18:11:49.580Z,21.75
2022-12-25T18:16:55.283Z,17.33
2022-12-25T18:22:00.386Z,16.33
2022-12-25T18:27:05.478Z,24.67
2022-12-25T18:32:10.666Z,29.25
2022-12-25T18:37:15.626Z,17.25
2022-12-25T18:42:38.405Z,23.33
2022-12-25T18:47:43.561Z,22.33
2022-12-25T18:52:51.767Z,17.00
2022-12-25T18:57:58.429Z,23.67
2022-12-25T19:03:04.558Z,14.67
2022-12-25T19:08:09.960Z,19.50
2022-12-25T19:13:14.736Z,20.25
2022-12-25T19:18:19.316Z,8.00
2022-12-25T19:23:26.053Z,22.50
2022-12-25T19:28:32.198Z,17.00
2022-12-25T19:33:39.636Z,14.00
2022-12-25T19:38:45.907Z,23.50
2022-12-25T19:43:52.307Z,13.75
2022-12-25T19:48:58.778Z,19.75
2022-12-25T19:54:04.285Z,12.67
2022-12-25T19:59:09.424Z,25.00
2022-12-25T20:04:14.395Z,27.33
2022-12-25T20:09:21.823Z,18.00
2022-12-25T20:14:26.880Z,23.50
2022-12-25T20:19:31.932Z,21.75
2022-12-25T20:24:37.612Z,12.50
2022-12-25T20:29:42.658Z,17.75
2022-12-25T20:34:47.799Z,17.25
2022-12-25T20:39:52.737Z,24.25
2022-12-25T20:44:58.258Z,15.00
2022-12-25T20:50:04.952Z,12.00
2022-12-25T20:55:10.307Z,18.00
2022-12-25T21:00:16.331Z,12.67
2022-12-25T21:05:21.380Z,6.00
2022-12-25T21:10:28.090Z,18.67
2022-12-25T21:15:32.966Z,27.50
2022-12-25T21:20:38.151Z,18.50
2022-12-25T21:25:43.786Z,10.50
2022-12-25T21:30:49.513Z,10.67
2022-12-25T21:35:54.775Z,7.33
2022-12-25T21:41:05.519Z,13.50
2022-12-25T21:46:12.580Z,18.25
2022-12-25T21:51:42.216Z,11.00
2022-12-25T21:56:49.274Z,10.00
2022-12-25T22:01:55.014Z,4.00
2022-12-25T22:07:18.214Z,6.50
2022-12-25T22:12:41.208Z,14.00
2022-12-25T22:18:04.646Z,11.00
2022-12-25T22:23:09.657Z,20.00
2022-12-25T22:28:15.351Z,12.67
2022-12-25T22:33:21.715Z,16.67
2022-12-25T22:38:26.787Z,22.00
2022-12-25T22:44:06.300Z,20.00
2022-12-25T22:48:56.998Z,15.25
2022-12-25T22:54:03.731Z,21.00
2022-12-25T22:59:09.044Z,13.33
2022-12-25T23:04:15.038Z,12.00
2022-12-25T23:09:25.998Z,13.33
2022-12-25T23:14:43.218Z,7.33
2022-12-25T23:20:05.804Z,14.33
2022-12-25T23:25:34.433Z,12.00
2022-12-25T23:30:39.109Z,10.00
2022-12-25T23:35:43.687Z,17.00
2022-12-25T23:40:48.262Z,31.00
2022-12-25T23:50:58.686Z,84.00
2022-12-25T23:56:04.499Z,130.33
